sensor_id;sensor_type;location;lat;lon;timestamp;P1;durP1;ratioP1;P2;durP2;ratioP2
35506;SDS011;36461;52.018;21.036;2023-02-28T00:01:29;14.70;;;7.10;;
35506;SDS011;36461;52.018;21.036;2023-02-28T00:03:58;13.10;;;6.80;;
35506;SDS011;36461;52.018;21.036;2023-02-28T00:06:26;12.00;;;6.40;;
35506;SDS011;36461;52.018;21.036;2023-02-28T00:08:54;12.90;;;7.60;;
35506;SDS011;36461;52.018;21.036;2023-02-28T00:11:22;12.00;;;7.20;;
35506;SDS011;36461;52.018;21.036;2023-02-28T00:13:50;13.00;;;7.80;;
35506;SDS011;36461;52.018;21.036;2023-02-28T00:16:20;15.40;;;7.70;;
35506;SDS011;36461;52.018;21.036;2023-02-28T00:18:50;13.50;;;7.90;;
35506;SDS011;36461;52.018;21.036;2023-02-28T00:21:19;13.70;;;8.10;;
35506;SDS011;36461;52.018;21.036;2023-02-28T00:23:47;17.60;;;8.90;;
35506;SDS011;36461;52.018;21.036;2023-02-28T00:26:16;17.10;;;9.60;;
35506;SDS011;36461;52.018;21.036;2023-02-28T00:28:48;14.90;;;9.00;;
35506;SDS011;36461;52.018;21.036;2023-02-28T00:31:16;14.40;;;8.80;;
35506;SDS011;36461;52.018;21.036;2023-02-28T00:33:44;16.90;;;9.00;;
35506;SDS011;36461;52.018;21.036;2023-02-28T00:36:14;16.60;;;9.60;;
35506;SDS011;36461;52.018;21.036;2023-02-28T00:38:42;14.00;;;8.80;;
35506;SDS011;36461;52.018;21.036;2023-02-28T00:41:10;16.60;;;9.10;;
35506;SDS011;36461;52.018;21.036;2023-02-28T00:43:39;18.00;;;10.10;;
35506;SDS011;36461;52.018;21.036;2023-02-28T00:46:07;18.70;;;11.70;;
35506;SDS011;36461;52.018;21.036;2023-02-28T00:48:36;18.20;;;11.00;;
35506;SDS011;36461;52.018;21.036;2023-02-28T00:51:04;18.30;;;11.10;;
35506;SDS011;36461;52.018;21.036;2023-02-28T00:53:33;17.10;;;10.70;;
35506;SDS011;36461;52.018;21.036;2023-02-28T00:56:01;21.00;;;11.50;;
35506;SDS011;36461;52.018;21.036;2023-02-28T00:58:31;16.80;;;10.40;;
35506;SDS011;36461;52.018;21.036;2023-02-28T01:01:00;16.40;;;10.50;;
35506;SDS011;36461;52.018;21.036;2023-02-28T01:03:28;15.80;;;10.60;;
35506;SDS011;36461;52.018;21.036;2023-02-28T01:05:56;16.10;;;10.00;;
35506;SDS011;36461;52.018;21.036;2023-02-28T01:08:25;16.70;;;10.00;;
35506;SDS011;36461;52.018;21.036;2023-02-28T01:10:54;13.40;;;8.20;;
35506;SDS011;36461;52.018;21.036;2023-02-28T01:13:22;12.80;;;7.80;;
35506;SDS011;36461;52.018;21.036;2023-02-28T01:15:54;14.00;;;7.90;;
35506;SDS011;36461;52.018;21.036;2023-02-28T01:18:24;14.10;;;8.40;;
35506;SDS011;36461;52.018;21.036;2023-02-28T01:20:53;12.40;;;8.10;;
35506;SDS011;36461;52.018;21.036;2023-02-28T01:23:22;14.80;;;8.40;;
35506;SDS011;36461;52.018;21.036;2023-02-28T01:25:51;14.50;;;8.40;;
35506;SDS011;36461;52.018;21.036;2023-02-28T01:28:20;13.20;;;8.80;;
35506;SDS011;36461;52.018;21.036;2023-02-28T01:30:50;10.90;;;7.50;;
35506;SDS011;36461;52.018;21.036;2023-02-28T01:33:19;12.40;;;7.90;;
35506;SDS011;36461;52.018;21.036;2023-02-28T01:35:47;14.80;;;7.90;;
35506;SDS011;36461;52.018;21.036;2023-02-28T01:38:16;14.60;;;8.80;;
35506;SDS011;36461;52.018;21.036;2023-02-28T01:40:50;14.50;;;8.20;;
35506;SDS011;36461;52.018;21.036;2023-02-28T01:43:23;14.30;;;9.00;;
35506;SDS011;36461;52.018;21.036;2023-02-28T01:45:59;16.10;;;8.60;;
35506;SDS011;36461;52.018;21.036;2023-02-28T01:48:29;15.50;;;8.50;;
35506;SDS011;36461;52.018;21.036;2023-02-28T01:51:03;15.70;;;9.00;;
35506;SDS011;36461;52.018;21.036;2023-02-28T01:53:39;16.50;;;8.70;;
35506;SDS011;36461;52.018;21.036;2023-02-28T01:56:13;14.00;;;8.20;;
35506;SDS011;36461;52.018;21.036;2023-02-28T01:58:52;15.60;;;8.70;;
35506;SDS011;36461;52.018;21.036;2023-02-28T02:01:23;14.40;;;8.10;;
35506;SDS011;36461;52.018;21.036;2023-02-28T02:03:54;16.30;;;9.10;;
35506;SDS011;36461;52.018;21.036;2023-02-28T02:06:34;17.80;;;8.90;;
35506;SDS011;36461;52.018;21.036;2023-02-28T02:09:07;13.90;;;8.20;;
35506;SDS011;36461;52.018;21.036;2023-02-28T02:11:35;15.40;;;8.50;;
35506;SDS011;36461;52.018;21.036;2023-02-28T02:25:45;15.20;;;8.40;;
35506;SDS011;36461;52.018;21.036;2023-02-28T02:31:27;18.40;;;9.30;;
35506;SDS011;36461;52.018;21.036;2023-02-28T02:36:53;13.40;;;7.80;;
35506;SDS011;36461;52.018;21.036;2023-02-28T02:39:36;13.50;;;8.10;;
35506;SDS011;36461;52.018;21.036;2023-02-28T02:42:15;12.60;;;8.20;;
35506;SDS011;36461;52.018;21.036;2023-02-28T02:44:50;15.30;;;8.20;;
35506;SDS011;36461;52.018;21.036;2023-02-28T02:47:24;14.10;;;8.10;;
35506;SDS011;36461;52.018;21.036;2023-02-28T02:49:55;16.00;;;8.50;;
35506;SDS011;36461;52.018;21.036;2023-02-28T02:52:32;15.20;;;9.00;;
35506;SDS011;36461;52.018;21.036;2023-02-28T02:55:06;13.80;;;8.50;;
35506;SDS011;36461;52.018;21.036;2023-02-28T02:57:42;14.40;;;8.30;;
35506;SDS011;36461;52.018;21.036;2023-02-28T03:00:15;14.60;;;8.50;;
35506;SDS011;36461;52.018;21.036;2023-02-28T03:02:47;17.10;;;9.20;;
35506;SDS011;36461;52.018;21.036;2023-02-28T03:05:26;15.40;;;8.70;;
35506;SDS011;36461;52.018;21.036;2023-02-28T03:07:58;16.40;;;9.10;;
35506;SDS011;36461;52.018;21.036;2023-02-28T03:18:40;15.90;;;8.70;;
35506;SDS011;36461;52.018;21.036;2023-02-28T03:21:40;14.50;;;8.50;;
35506;SDS011;36461;52.018;21.036;2023-02-28T03:26:50;13.60;;;8.30;;
35506;SDS011;36461;52.018;21.036;2023-02-28T03:29:26;13.50;;;8.10;;
35506;SDS011;36461;52.018;21.036;2023-02-28T03:32:21;14.00;;;8.00;;
35506;SDS011;36461;52.018;21.036;2023-02-28T03:34:58;15.40;;;8.10;;
35506;SDS011;36461;52.018;21.036;2023-02-28T03:37:33;15.80;;;9.10;;
35506;SDS011;36461;52.018;21.036;2023-02-28T03:40:07;16.70;;;9.30;;
35506;SDS011;36461;52.018;21.036;2023-02-28T03:42:41;16.20;;;8.50;;
35506;SDS011;36461;52.018;21.036;2023-02-28T03:45:13;17.10;;;9.30;;
35506;SDS011;36461;52.018;21.036;2023-02-28T03:48:02;17.50;;;8.90;;
35506;SDS011;36461;52.018;21.036;2023-02-28T03:50:47;17.60;;;8.70;;
35506;SDS011;36461;52.018;21.036;2023-02-28T03:53:19;12.80;;;7.60;;
35506;SDS011;36461;52.018;21.036;2023-02-28T03:56:08;11.30;;;7.10;;
35506;SDS011;36461;52.018;21.036;2023-02-28T03:58:47;13.20;;;7.50;;
35506;SDS011;36461;52.018;21.036;2023-02-28T04:01:27;12.60;;;8.10;;
35506;SDS011;36461;52.018;21.036;2023-02-28T04:04:01;12.40;;;7.80;;
35506;SDS011;36461;52.018;21.036;2023-02-28T04:06:31;11.90;;;7.90;;
35506;SDS011;36461;52.018;21.036;2023-02-28T04:09:01;12.70;;;7.50;;
35506;SDS011;36461;52.018;21.036;2023-02-28T04:11:35;13.30;;;7.40;;
35506;SDS011;36461;52.018;21.036;2023-02-28T04:14:09;12.70;;;7.50;;
35506;SDS011;36461;52.018;21.036;2023-02-28T04:16:39;14.20;;;8.40;;
35506;SDS011;36461;52.018;21.036;2023-02-28T04:19:10;12.50;;;7.80;;
35506;SDS011;36461;52.018;21.036;2023-02-28T04:21:43;14.10;;;8.10;;
35506;SDS011;36461;52.018;21.036;2023-02-28T04:24:15;16.50;;;9.10;;
35506;SDS011;36461;52.018;21.036;2023-02-28T04:26:46;15.50;;;9.40;;
35506;SDS011;36461;52.018;21.036;2023-02-28T04:29:26;16.60;;;9.40;;
35506;SDS011;36461;52.018;21.036;2023-02-28T04:31:56;17.20;;;9.80;;
35506;SDS011;36461;52.018;21.036;2023-02-28T04:34:29;18.70;;;10.00;;
35506;SDS011;36461;52.018;21.036;2023-02-28T04:36:59;15.10;;;9.90;;
35506;SDS011;36461;52.018;21.036;2023-02-28T04:39:43;16.80;;;9.70;;
35506;SDS011;36461;52.018;21.036;2023-02-28T04:42:12;17.20;;;9.90;;
35506;SDS011;36461;52.018;21.036;2023-02-28T04:44:41;15.30;;;10.40;;
35506;SDS011;36461;52.018;21.036;2023-02-28T04:47:09;18.90;;;10.70;;
35506;SDS011;36461;52.018;21.036;2023-02-28T04:49:37;19.60;;;11.40;;
35506;SDS011;36461;52.018;21.036;2023-02-28T04:52:06;18.10;;;11.50;;
35506;SDS011;36461;52.018;21.036;2023-02-28T04:54:35;19.90;;;11.00;;
35506;SDS011;36461;52.018;21.036;2023-02-28T04:57:03;20.60;;;11.60;;
35506;SDS011;36461;52.018;21.036;2023-02-28T04:59:32;22.50;;;12.50;;
35506;SDS011;36461;52.018;21.036;2023-02-28T05:02:00;19.50;;;12.40;;
35506;SDS011;36461;52.018;21.036;2023-02-28T05:04:35;19.70;;;12.10;;
35506;SDS011;36461;52.018;21.036;2023-02-28T05:07:04;18.70;;;11.50;;
35506;SDS011;36461;52.018;21.036;2023-02-28T05:09:32;16.90;;;11.00;;
35506;SDS011;36461;52.018;21.036;2023-02-28T05:12:01;18.00;;;11.00;;
35506;SDS011;36461;52.018;21.036;2023-02-28T05:14:29;15.70;;;10.50;;
35506;SDS011;36461;52.018;21.036;2023-02-28T05:16:57;19.40;;;11.00;;
35506;SDS011;36461;52.018;21.036;2023-02-28T05:19:25;20.30;;;11.20;;
35506;SDS011;36461;52.018;21.036;2023-02-28T05:21:53;19.50;;;11.20;;
35506;SDS011;36461;52.018;21.036;2023-02-28T05:24:23;17.80;;;10.90;;
35506;SDS011;36461;52.018;21.036;2023-02-28T05:26:52;18.50;;;11.30;;
35506;SDS011;36461;52.018;21.036;2023-02-28T05:29:21;17.20;;;10.90;;
35506;SDS011;36461;52.018;21.036;2023-02-28T05:31:50;18.70;;;10.80;;
35506;SDS011;36461;52.018;21.036;2023-02-28T05:34:18;19.50;;;11.40;;
35506;SDS011;36461;52.018;21.036;2023-02-28T05:36:46;16.80;;;9.90;;
35506;SDS011;36461;52.018;21.036;2023-02-28T05:39:14;18.80;;;11.40;;
35506;SDS011;36461;52.018;21.036;2023-02-28T05:41:43;19.00;;;11.50;;
35506;SDS011;36461;52.018;21.036;2023-02-28T05:44:11;16.90;;;11.30;;
35506;SDS011;36461;52.018;21.036;2023-02-28T05:46:40;21.20;;;12.80;;
35506;SDS011;36461;52.018;21.036;2023-02-28T05:49:08;22.30;;;12.50;;
35506;SDS011;36461;52.018;21.036;2023-02-28T05:51:36;21.60;;;12.30;;
35506;SDS011;36461;52.018;21.036;2023-02-28T05:54:07;19.60;;;12.00;;
35506;SDS011;36461;52.018;21.036;2023-02-28T05:56:36;22.50;;;12.70;;
35506;SDS011;36461;52.018;21.036;2023-02-28T05:59:07;20.60;;;13.00;;
35506;SDS011;36461;52.018;21.036;2023-02-28T06:04:17;23.10;;;13.30;;
35506;SDS011;36461;52.018;21.036;2023-02-28T06:06:58;23.50;;;13.80;;
35506;SDS011;36461;52.018;21.036;2023-02-28T06:09:26;26.30;;;16.00;;
35506;SDS011;36461;52.018;21.036;2023-02-28T06:11:57;33.90;;;21.50;;
35506;SDS011;36461;52.018;21.036;2023-02-28T06:14:31;38.60;;;24.70;;
35506;SDS011;36461;52.018;21.036;2023-02-28T06:17:01;36.50;;;24.40;;
35506;SDS011;36461;52.018;21.036;2023-02-28T06:19:30;31.60;;;22.70;;
35506;SDS011;36461;52.018;21.036;2023-02-28T06:21:58;32.90;;;22.30;;
35506;SDS011;36461;52.018;21.036;2023-02-28T06:24:27;33.80;;;20.80;;
35506;SDS011;36461;52.018;21.036;2023-02-28T06:26:55;27.10;;;19.70;;
35506;SDS011;36461;52.018;21.036;2023-02-28T06:29:25;25.40;;;17.80;;
35506;SDS011;36461;52.018;21.036;2023-02-28T06:31:53;27.40;;;17.80;;
35506;SDS011;36461;52.018;21.036;2023-02-28T06:34:21;27.20;;;17.30;;
35506;SDS011;36461;52.018;21.036;2023-02-28T06:36:50;26.90;;;16.60;;
35506;SDS011;36461;52.018;21.036;2023-02-28T06:39:19;24.40;;;16.60;;
35506;SDS011;36461;52.018;21.036;2023-02-28T06:41:47;30.70;;;21.10;;
35506;SDS011;36461;52.018;21.036;2023-02-28T06:44:23;66.40;;;49.50;;
35506;SDS011;36461;52.018;21.036;2023-02-28T06:46:51;52.10;;;34.50;;
35506;SDS011;36461;52.018;21.036;2023-02-28T06:49:19;36.90;;;24.80;;
35506;SDS011;36461;52.018;21.036;2023-02-28T06:51:48;38.90;;;25.80;;
35506;SDS011;36461;52.018;21.036;2023-02-28T06:54:16;39.20;;;25.50;;
35506;SDS011;36461;52.018;21.036;2023-02-28T06:56:44;42.10;;;27.80;;
35506;SDS011;36461;52.018;21.036;2023-02-28T06:59:12;45.60;;;28.70;;
35506;SDS011;36461;52.018;21.036;2023-02-28T07:01:40;43.80;;;28.40;;
35506;SDS011;36461;52.018;21.036;2023-02-28T07:04:09;40.50;;;26.00;;
35506;SDS011;36461;52.018;21.036;2023-02-28T07:06:37;38.50;;;23.40;;
35506;SDS011;36461;52.018;21.036;2023-02-28T07:09:05;35.30;;;23.50;;
35506;SDS011;36461;52.018;21.036;2023-02-28T07:11:33;37.70;;;24.80;;
35506;SDS011;36461;52.018;21.036;2023-02-28T07:14:01;36.50;;;23.30;;
35506;SDS011;36461;52.018;21.036;2023-02-28T07:16:30;32.70;;;21.90;;
35506;SDS011;36461;52.018;21.036;2023-02-28T07:18:58;29.40;;;16.20;;
35506;SDS011;36461;52.018;21.036;2023-02-28T07:21:26;29.00;;;17.70;;
35506;SDS011;36461;52.018;21.036;2023-02-28T07:23:55;28.90;;;20.40;;
35506;SDS011;36461;52.018;21.036;2023-02-28T07:26:24;25.20;;;15.70;;
35506;SDS011;36461;52.018;21.036;2023-02-28T07:28:52;23.70;;;14.60;;
35506;SDS011;36461;52.018;21.036;2023-02-28T07:31:20;20.90;;;14.30;;
35506;SDS011;36461;52.018;21.036;2023-02-28T07:33:48;23.10;;;14.10;;
35506;SDS011;36461;52.018;21.036;2023-02-28T07:36:17;25.70;;;16.30;;
35506;SDS011;36461;52.018;21.036;2023-02-28T07:38:47;26.90;;;15.80;;
35506;SDS011;36461;52.018;21.036;2023-02-28T07:41:18;25.90;;;15.00;;
35506;SDS011;36461;52.018;21.036;2023-02-28T07:43:48;23.60;;;14.90;;
35506;SDS011;36461;52.018;21.036;2023-02-28T07:46:16;25.50;;;14.30;;
35506;SDS011;36461;52.018;21.036;2023-02-28T07:48:46;19.60;;;12.70;;
35506;SDS011;36461;52.018;21.036;2023-02-28T07:51:14;13.50;;;8.60;;
35506;SDS011;36461;52.018;21.036;2023-02-28T07:53:42;13.00;;;7.90;;
35506;SDS011;36461;52.018;21.036;2023-02-28T07:56:10;13.50;;;8.70;;
35506;SDS011;36461;52.018;21.036;2023-02-28T07:58:38;16.50;;;10.60;;
35506;SDS011;36461;52.018;21.036;2023-02-28T08:01:07;20.50;;;11.00;;
35506;SDS011;36461;52.018;21.036;2023-02-28T08:03:37;16.30;;;10.00;;
35506;SDS011;36461;52.018;21.036;2023-02-28T08:06:06;13.40;;;8.50;;
35506;SDS011;36461;52.018;21.036;2023-02-28T08:08:36;13.90;;;8.60;;
35506;SDS011;36461;52.018;21.036;2023-02-28T08:11:04;18.20;;;10.70;;
35506;SDS011;36461;52.018;21.036;2023-02-28T08:13:32;15.40;;;9.60;;
35506;SDS011;36461;52.018;21.036;2023-02-28T08:16:01;13.10;;;8.50;;
35506;SDS011;36461;52.018;21.036;2023-02-28T08:18:30;12.60;;;7.50;;
35506;SDS011;36461;52.018;21.036;2023-02-28T08:21:05;12.70;;;7.80;;
35506;SDS011;36461;52.018;21.036;2023-02-28T08:23:37;14.20;;;9.10;;
35506;SDS011;36461;52.018;21.036;2023-02-28T08:26:05;15.30;;;8.40;;
35506;SDS011;36461;52.018;21.036;2023-02-28T08:28:34;12.10;;;7.90;;
35506;SDS011;36461;52.018;21.036;2023-02-28T08:31:06;12.30;;;7.80;;
35506;SDS011;36461;52.018;21.036;2023-02-28T08:33:36;14.70;;;7.60;;
35506;SDS011;36461;52.018;21.036;2023-02-28T08:36:07;13.70;;;7.30;;
35506;SDS011;36461;52.018;21.036;2023-02-28T08:38:36;13.00;;;7.70;;
35506;SDS011;36461;52.018;21.036;2023-02-28T08:41:06;10.70;;;7.40;;
35506;SDS011;36461;52.018;21.036;2023-02-28T08:43:38;11.80;;;8.40;;
35506;SDS011;36461;52.018;21.036;2023-02-28T08:46:07;11.20;;;7.10;;
35506;SDS011;36461;52.018;21.036;2023-02-28T08:48:38;14.80;;;8.10;;
35506;SDS011;36461;52.018;21.036;2023-02-28T08:51:08;10.60;;;6.90;;
35506;SDS011;36461;52.018;21.036;2023-02-28T08:53:49;10.00;;;7.10;;
35506;SDS011;36461;52.018;21.036;2023-02-28T08:56:17;12.20;;;7.30;;
35506;SDS011;36461;52.018;21.036;2023-02-28T08:58:46;10.20;;;7.00;;
35506;SDS011;36461;52.018;21.036;2023-02-28T09:01:19;13.50;;;7.70;;
35506;SDS011;36461;52.018;21.036;2023-02-28T09:03:50;10.30;;;7.10;;
35506;SDS011;36461;52.018;21.036;2023-02-28T09:06:20;11.30;;;7.00;;
35506;SDS011;36461;52.018;21.036;2023-02-28T09:08:49;13.20;;;7.50;;
35506;SDS011;36461;52.018;21.036;2023-02-28T09:11:18;12.20;;;7.40;;
35506;SDS011;36461;52.018;21.036;2023-02-28T09:13:46;9.50;;;6.60;;
35506;SDS011;36461;52.018;21.036;2023-02-28T09:16:15;10.40;;;7.00;;
35506;SDS011;36461;52.018;21.036;2023-02-28T09:18:44;10.30;;;7.10;;
35506;SDS011;36461;52.018;21.036;2023-02-28T09:21:17;11.10;;;7.40;;
35506;SDS011;36461;52.018;21.036;2023-02-28T09:23:47;11.80;;;7.20;;
35506;SDS011;36461;52.018;21.036;2023-02-28T09:26:21;10.00;;;6.90;;
35506;SDS011;36461;52.018;21.036;2023-02-28T09:29:09;10.00;;;7.30;;
35506;SDS011;36461;52.018;21.036;2023-02-28T09:31:37;10.70;;;7.20;;
35506;SDS011;36461;52.018;21.036;2023-02-28T09:34:05;10.90;;;7.80;;
35506;SDS011;36461;52.018;21.036;2023-02-28T09:36:34;11.00;;;7.40;;
35506;SDS011;36461;52.018;21.036;2023-02-28T09:39:12;15.70;;;8.70;;
35506;SDS011;36461;52.018;21.036;2023-02-28T09:41:44;12.70;;;8.10;;
35506;SDS011;36461;52.018;21.036;2023-02-28T09:52:54;9.90;;;6.90;;
35506;SDS011;36461;52.018;21.036;2023-02-28T09:55:28;10.00;;;6.70;;
35506;SDS011;36461;52.018;21.036;2023-02-28T09:58:15;8.40;;;6.60;;
35506;SDS011;36461;52.018;21.036;2023-02-28T10:06:53;11.30;;;6.90;;
35506;SDS011;36461;52.018;21.036;2023-02-28T10:09:22;10.30;;;7.10;;
35506;SDS011;36461;52.018;21.036;2023-02-28T10:11:56;11.90;;;8.50;;
35506;SDS011;36461;52.018;21.036;2023-02-28T10:14:30;11.70;;;7.50;;
35506;SDS011;36461;52.018;21.036;2023-02-28T10:17:03;8.50;;;6.40;;
35506;SDS011;36461;52.018;21.036;2023-02-28T10:19:42;11.20;;;7.10;;
35506;SDS011;36461;52.018;21.036;2023-02-28T10:22:18;9.20;;;6.60;;
35506;SDS011;36461;52.018;21.036;2023-02-28T10:24:50;9.90;;;7.50;;
35506;SDS011;36461;52.018;21.036;2023-02-28T10:27:21;9.80;;;6.90;;
35506;SDS011;36461;52.018;21.036;2023-02-28T10:29:58;10.80;;;6.80;;
35506;SDS011;36461;52.018;21.036;2023-02-28T10:35:46;11.80;;;7.10;;
35506;SDS011;36461;52.018;21.036;2023-02-28T10:37:58;10.40;;;6.70;;
35506;SDS011;36461;52.018;21.036;2023-02-28T10:40:33;9.20;;;6.20;;
35506;SDS011;36461;52.018;21.036;2023-02-28T10:43:18;12.00;;;7.50;;
35506;SDS011;36461;52.018;21.036;2023-02-28T10:48:44;11.10;;;7.30;;
35506;SDS011;36461;52.018;21.036;2023-02-28T10:51:18;11.20;;;8.40;;
35506;SDS011;36461;52.018;21.036;2023-02-28T10:56:30;14.20;;;7.90;;
35506;SDS011;36461;52.018;21.036;2023-02-28T11:01:57;11.00;;;7.60;;
35506;SDS011;36461;52.018;21.036;2023-02-28T11:07:16;11.50;;;7.90;;
35506;SDS011;36461;52.018;21.036;2023-02-28T11:09:51;13.80;;;8.30;;
35506;SDS011;36461;52.018;21.036;2023-02-28T11:12:36;14.30;;;8.20;;
35506;SDS011;36461;52.018;21.036;2023-02-28T11:15:22;12.80;;;9.20;;
35506;SDS011;36461;52.018;21.036;2023-02-28T11:18:02;11.40;;;7.60;;
35506;SDS011;36461;52.018;21.036;2023-02-28T11:20:32;10.60;;;7.50;;
35506;SDS011;36461;52.018;21.036;2023-02-28T11:23:03;10.40;;;7.10;;
35506;SDS011;36461;52.018;21.036;2023-02-28T11:25:33;11.40;;;7.70;;
35506;SDS011;36461;52.018;21.036;2023-02-28T11:28:05;13.80;;;8.20;;
35506;SDS011;36461;52.018;21.036;2023-02-28T11:31:01;12.20;;;8.00;;
35506;SDS011;36461;52.018;21.036;2023-02-28T11:33:40;11.40;;;7.90;;
35506;SDS011;36461;52.018;21.036;2023-02-28T11:36:13;11.10;;;7.40;;
35506;SDS011;36461;52.018;21.036;2023-02-28T11:38:46;9.30;;;6.70;;
35506;SDS011;36461;52.018;21.036;2023-02-28T11:44:28;13.00;;;7.80;;
35506;SDS011;36461;52.018;21.036;2023-02-28T11:47:25;12.50;;;7.60;;
35506;SDS011;36461;52.018;21.036;2023-02-28T11:55:27;10.80;;;7.80;;
35506;SDS011;36461;52.018;21.036;2023-02-28T12:01:32;14.40;;;7.90;;
35506;SDS011;36461;52.018;21.036;2023-02-28T12:07:13;18.40;;;8.70;;
35506;SDS011;36461;52.018;21.036;2023-02-28T12:12:28;10.80;;;8.20;;
35506;SDS011;36461;52.018;21.036;2023-02-28T12:20:54;10.70;;;7.10;;
35506;SDS011;36461;52.018;21.036;2023-02-28T12:29:16;10.60;;;7.00;;
35506;SDS011;36461;52.018;21.036;2023-02-28T12:31:59;10.10;;;7.20;;
35506;SDS011;36461;52.018;21.036;2023-02-28T12:34:36;11.80;;;7.30;;
35506;SDS011;36461;52.018;21.036;2023-02-28T12:37:10;10.60;;;7.40;;
35506;SDS011;36461;52.018;21.036;2023-02-28T12:39:45;9.40;;;6.70;;
35506;SDS011;36461;52.018;21.036;2023-02-28T12:42:19;9.50;;;6.90;;
35506;SDS011;36461;52.018;21.036;2023-02-28T12:44:59;11.30;;;8.20;;
35506;SDS011;36461;52.018;21.036;2023-02-28T12:47:37;10.50;;;7.40;;
35506;SDS011;36461;52.018;21.036;2023-02-28T12:50:10;13.90;;;8.50;;
35506;SDS011;36461;52.018;21.036;2023-02-28T12:55:49;10.30;;;7.30;;
35506;SDS011;36461;52.018;21.036;2023-02-28T12:58:35;12.20;;;7.80;;
35506;SDS011;36461;52.018;21.036;2023-02-28T13:01:35;11.40;;;7.30;;
35506;SDS011;36461;52.018;21.036;2023-02-28T13:04:12;10.70;;;7.30;;
35506;SDS011;36461;52.018;21.036;2023-02-28T13:09:31;15.70;;;9.20;;
35506;SDS011;36461;52.018;21.036;2023-02-28T13:12:00;29.70;;;15.80;;
35506;SDS011;36461;52.018;21.036;2023-02-28T13:19:44;11.70;;;7.80;;
35506;SDS011;36461;52.018;21.036;2023-02-28T13:24:53;16.40;;;10.70;;
35506;SDS011;36461;52.018;21.036;2023-02-28T13:29:52;11.40;;;7.30;;
35506;SDS011;36461;52.018;21.036;2023-02-28T13:32:39;11.00;;;6.90;;
35506;SDS011;36461;52.018;21.036;2023-02-28T13:37:36;13.10;;;7.30;;
35506;SDS011;36461;52.018;21.036;2023-02-28T13:42:48;11.00;;;6.50;;
35506;SDS011;36461;52.018;21.036;2023-02-28T13:45:28;12.30;;;7.20;;
35506;SDS011;36461;52.018;21.036;2023-02-28T13:48:01;10.20;;;7.00;;
35506;SDS011;36461;52.018;21.036;2023-02-28T13:50:36;11.00;;;7.00;;
35506;SDS011;36461;52.018;21.036;2023-02-28T13:55:52;10.80;;;7.60;;
35506;SDS011;36461;52.018;21.036;2023-02-28T13:59:06;15.20;;;8.40;;
35506;SDS011;36461;52.018;21.036;2023-02-28T14:07:25;13.00;;;7.50;;
35506;SDS011;36461;52.018;21.036;2023-02-28T14:09:59;10.50;;;7.20;;
35506;SDS011;36461;52.018;21.036;2023-02-28T14:18:02;12.70;;;8.50;;
35506;SDS011;36461;52.018;21.036;2023-02-28T14:20:33;11.80;;;8.10;;
35506;SDS011;36461;52.018;21.036;2023-02-28T14:23:04;14.80;;;9.40;;
35506;SDS011;36461;52.018;21.036;2023-02-28T14:28:36;16.70;;;9.10;;
35506;SDS011;36461;52.018;21.036;2023-02-28T14:31:12;14.10;;;9.20;;
35506;SDS011;36461;52.018;21.036;2023-02-28T14:36:49;15.90;;;10.10;;
35506;SDS011;36461;52.018;21.036;2023-02-28T14:39:22;15.30;;;10.00;;
35506;SDS011;36461;52.018;21.036;2023-02-28T14:41:53;17.30;;;12.60;;
35506;SDS011;36461;52.018;21.036;2023-02-28T14:44:25;22.70;;;14.30;;
35506;SDS011;36461;52.018;21.036;2023-02-28T14:46:56;19.90;;;12.10;;
35506;SDS011;36461;52.018;21.036;2023-02-28T14:49:35;15.50;;;10.50;;
35506;SDS011;36461;52.018;21.036;2023-02-28T14:52:07;15.90;;;10.00;;
35506;SDS011;36461;52.018;21.036;2023-02-28T14:54:43;52.20;;;29.40;;
35506;SDS011;36461;52.018;21.036;2023-02-28T14:59:59;19.10;;;12.10;;
35506;SDS011;36461;52.018;21.036;2023-02-28T15:02:38;16.60;;;10.40;;
35506;SDS011;36461;52.018;21.036;2023-02-28T15:07:45;14.30;;;10.20;;
35506;SDS011;36461;52.018;21.036;2023-02-28T15:12:49;19.10;;;12.60;;
35506;SDS011;36461;52.018;21.036;2023-02-28T15:15:21;21.20;;;12.70;;
35506;SDS011;36461;52.018;21.036;2023-02-28T15:18:07;16.90;;;11.20;;
35506;SDS011;36461;52.018;21.036;2023-02-28T15:20:42;17.20;;;10.90;;
35506;SDS011;36461;52.018;21.036;2023-02-28T15:23:12;17.30;;;12.00;;
35506;SDS011;36461;52.018;21.036;2023-02-28T15:25:40;18.10;;;11.10;;
35506;SDS011;36461;52.018;21.036;2023-02-28T15:28:12;16.20;;;11.10;;
35506;SDS011;36461;52.018;21.036;2023-02-28T15:30:54;16.90;;;10.10;;
35506;SDS011;36461;52.018;21.036;2023-02-28T15:33:28;18.10;;;11.70;;
35506;SDS011;36461;52.018;21.036;2023-02-28T15:36:15;16.40;;;11.40;;
35506;SDS011;36461;52.018;21.036;2023-02-28T15:38:45;20.00;;;12.00;;
35506;SDS011;36461;52.018;21.036;2023-02-28T15:41:26;29.50;;;16.30;;
35506;SDS011;36461;52.018;21.036;2023-02-28T15:47:04;30.80;;;18.40;;
35506;SDS011;36461;52.018;21.036;2023-02-28T15:49:39;33.00;;;20.70;;
35506;SDS011;36461;52.018;21.036;2023-02-28T15:52:17;24.80;;;14.30;;
35506;SDS011;36461;52.018;21.036;2023-02-28T15:54:49;27.90;;;17.20;;
35506;SDS011;36461;52.018;21.036;2023-02-28T15:57:18;20.20;;;12.80;;
35506;SDS011;36461;52.018;21.036;2023-02-28T15:59:53;19.60;;;11.50;;
35506;SDS011;36461;52.018;21.036;2023-02-28T16:02:33;20.40;;;12.90;;
35506;SDS011;36461;52.018;21.036;2023-02-28T16:07:38;30.40;;;17.40;;
35506;SDS011;36461;52.018;21.036;2023-02-28T16:10:08;29.30;;;18.40;;
35506;SDS011;36461;52.018;21.036;2023-02-28T16:12:39;31.10;;;20.10;;
35506;SDS011;36461;52.018;21.036;2023-02-28T16:15:14;41.80;;;21.70;;
35506;SDS011;36461;52.018;21.036;2023-02-28T16:17:47;35.00;;;20.90;;
35506;SDS011;36461;52.018;21.036;2023-02-28T16:20:17;38.90;;;23.30;;
35506;SDS011;36461;52.018;21.036;2023-02-28T16:22:53;36.90;;;21.20;;
35506;SDS011;36461;52.018;21.036;2023-02-28T16:25:27;34.10;;;20.40;;
35506;SDS011;36461;52.018;21.036;2023-02-28T16:28:03;28.80;;;18.60;;
35506;SDS011;36461;52.018;21.036;2023-02-28T16:30:36;31.40;;;19.20;;
35506;SDS011;36461;52.018;21.036;2023-02-28T16:33:04;26.80;;;18.10;;
35506;SDS011;36461;52.018;21.036;2023-02-28T16:35:35;28.90;;;18.30;;
35506;SDS011;36461;52.018;21.036;2023-02-28T16:38:03;29.80;;;18.00;;
35506;SDS011;36461;52.018;21.036;2023-02-28T16:40:33;28.20;;;17.70;;
35506;SDS011;36461;52.018;21.036;2023-02-28T16:43:07;31.20;;;20.70;;
35506;SDS011;36461;52.018;21.036;2023-02-28T16:45:43;31.70;;;20.00;;
35506;SDS011;36461;52.018;21.036;2023-02-28T16:48:12;34.70;;;22.10;;
35506;SDS011;36461;52.018;21.036;2023-02-28T16:50:43;32.10;;;21.60;;
35506;SDS011;36461;52.018;21.036;2023-02-28T16:53:14;34.10;;;21.30;;
35506;SDS011;36461;52.018;21.036;2023-02-28T16:55:42;37.00;;;22.00;;
35506;SDS011;36461;52.018;21.036;2023-02-28T16:58:14;35.60;;;21.50;;
35506;SDS011;36461;52.018;21.036;2023-02-28T17:00:44;34.60;;;20.80;;
35506;SDS011;36461;52.018;21.036;2023-02-28T17:03:18;32.30;;;19.70;;
35506;SDS011;36461;52.018;21.036;2023-02-28T17:06:00;31.90;;;18.80;;
35506;SDS011;36461;52.018;21.036;2023-02-28T17:08:29;31.30;;;18.40;;
35506;SDS011;36461;52.018;21.036;2023-02-28T17:10:59;28.70;;;17.60;;